Time;durP1;ratioP1;P1;durP2;ratioP2;P2;SDS_P1;SDS_P2;PMS_P1;PMS_P2;Temp;Humidity;BMP_temperature;BMP_pressure;BME280_temperature;BME280_humidity;BME280_pressure;Samples;Min_cycle;Max_cycle;Signal;HPM_P1;HPM_P2
2022/05/17 00:00:18;;;;;;;12.30;5.10;;;;;;;13.64;55.59;99546.57;103757;1300;22504;-26
2022/05/17 00:02:47;;;;;;;37.90;23.50;;;;;;;13.61;56.02;99545.70;103598;1300;25249;-29
2022/05/17 00:05:16;;;;;;;32.60;25.50;;;;;;;13.58;56.01;99549.12;103749;1300;22623;-24
2022/05/17 00:07:44;;;;;;;48.20;36.40;;;;;;;13.57;56.05;99543.84;103731;1300;23998;-28
2022/05/17 00:10:13;;;;;;;164.90;78.40;;;;;;;13.60;56.14;99540.48;103689;1300;22876;-24
2022/05/17 00:12:43;;;;;;;50.20;30.90;;;;;;;13.56;56.30;99530.94;103815;1300;24352;-24
2022/05/17 00:15:12;;;;;;;15.10;9.00;;;;;;;13.59;56.36;99526.20;103730;1300;23806;-28
2022/05/17 00:17:41;;;;;;;41.30;21.10;;;;;;;13.53;56.21;99524.27;103685;1300;24211;-24
2022/05/17 00:20:10;;;;;;;15.50;6.60;;;;;;;13.46;56.53;99522.71;103783;1300;24294;-28
2022/05/17 00:22:40;;;;;;;6.80;4.40;;;;;;;13.44;56.48;99524.14;103624;1300;24245;-26
2022/05/17 00:25:09;;;;;;;9.40;3.10;;;;;;;13.37;56.53;99522.91;103579;1300;22497;-24
2022/05/17 00:27:38;;;;;;;14.80;8.00;;;;;;;13.34;56.49;99524.83;103553;1300;22511;-28
2022/05/17 00:30:08;;;;;;;13.20;6.20;;;;;;;13.28;56.53;99526.23;103746;1300;23755;-24
2022/05/17 00:32:37;;;;;;;19.70;6.30;;;;;;;13.31;56.40;99526.07;103679;1300;24250;-28
2022/05/17 00:35:08;;;;;;;6.90;3.60;;;;;;;13.31;56.34;99526.48;103702;1300;25209;-25
2022/05/17 00:37:37;;;;;;;95.80;75.30;;;;;;;13.34;56.23;99525.31;103712;1300;25337;-27
2022/05/17 00:40:06;;;;;;;5.80;4.00;;;;;;;13.34;56.03;99526.98;103801;1300;22500;-28
2022/05/17 00:42:35;;;;;;;7.30;3.50;;;;;;;13.32;56.02;99521.38;103566;1301;23797;-28
2022/05/17 00:45:07;;;;;;;6.60;5.00;;;;;;;13.32;56.06;99519.63;103712;1298;22493;-24
2022/05/17 00:47:42;;;;;;;6.40;4.80;;;;;;;13.25;56.16;99526.37;103663;1300;22502;-30
2022/05/17 00:50:13;;;;;;;11.80;7.50;;;;;;;13.19;56.26;99524.20;103724;1300;25130;-26
2022/05/17 00:52:53;;;;;;;11.50;10.30;;;;;;;13.13;56.59;99521.38;103729;1299;23785;-26
2022/05/17 00:55:24;;;;;;;6.30;1.80;;;;;;;13.09;56.83;99520.33;103758;1300;23524;-27
2022/05/17 00:57:55;;;;;;;14.80;11.00;;;;;;;13.03;56.92;99515.30;103734;1300;23612;-25
2022/05/17 01:00:24;;;;;;;9.00;8.10;;;;;;;13.04;57.00;99511.94;103741;1300;22504;-25
2022/05/17 01:02:57;;;;;;;5.90;5.30;;;;;;;13.00;57.11;99508.45;103725;1300;22500;-28
2022/05/17 01:05:26;;;;;;;12.30;10.20;;;;;;;12.97;57.02;99505.73;103708;1300;23772;-29
2022/05/17 01:07:56;;;;;;;8.30;5.80;;;;;;;12.96;57.15;99505.81;103722;1300;24361;-28
2022/05/17 01:10:27;;;;;;;5.70;5.10;;;;;;;13.02;57.00;99503.73;103712;1300;26150;-28
2022/05/17 01:15:30;;;;;;;6.40;2.40;;;;;;;13.00;56.84;99502.24;103754;1300;22510;-28
2022/05/17 01:17:59;;;;;;;1.90;1.50;;;;;;;13.03;56.67;99499.50;103558;1300;24427;-25
2022/05/17 01:20:28;;;;;;;5.10;1.70;;;;;;;13.02;56.95;99500.96;103736;1300;24352;-28
2022/05/17 01:22:56;;;;;;;8.30;1.90;;;;;;;12.97;56.97;99497.97;103745;1300;23612;-26
2022/05/17 01:25:26;;;;;;;4.10;1.30;;;;;;;12.99;57.19;99499.63;103663;1300;23943;-25
2022/05/17 01:28:00;;;;;;;3.00;2.70;;;;;;;13.04;56.78;99491.73;103747;1300;25018;-25
2022/05/17 01:30:30;;;;;;;3.30;2.60;;;;;;;13.09;56.61;99488.83;103718;1300;23609;-28
2022/05/17 01:32:59;;;;;;;5.30;2.80;;;;;;;13.13;56.41;99491.11;103779;1300;24245;-29
2022/05/17 01:35:28;;;;;;;2.80;1.50;;;;;;;13.06;56.69;99485.77;103745;1300;22495;-25
2022/05/17 01:38:00;;;;;;;2.00;1.10;;;;;;;13.05;56.87;99491.00;103789;1300;25012;-28
2022/05/17 01:40:29;;;;;;;3.10;1.40;;;;;;;13.00;57.16;99489.63;103768;1300;24211;-27
2022/05/17 01:42:58;;;;;;;3.50;1.70;;;;;;;13.04;56.92;99490.33;103701;1300;24242;-26
2022/05/17 01:45:28;;;;;;;4.60;2.30;;;;;;;13.05;57.28;99482.88;103722;1300;23886;-29
2022/05/17 01:47:56;;;;;;;4.90;2.00;;;;;;;12.96;57.57;99483.23;103742;1300;24234;-24
2022/05/17 01:50:26;;;;;;;8.30;5.90;;;;;;;12.84;57.49;99486.29;103774;1300;23860;-28
2022/05/17 01:52:54;;;;;;;8.20;6.30;;;;;;;12.75;57.70;99483.56;103691;1300;23630;-26
2022/05/17 01:55:24;;;;;;;3.30;1.80;;;;;;;12.73;57.61;99484.90;103796;1300;24328;-30
2022/05/17 01:57:53;;;;;;;6.70;1.90;;;;;;;12.73;57.61;99480.42;103631;1300;23644;-27
2022/05/17 02:00:23;;;;;;;3.70;1.80;;;;;;;12.74;57.62;99476.40;103740;1300;23602;-27
2022/05/17 02:02:52;;;;;;;8.30;6.10;;;;;;;12.75;57.39;99475.44;103702;1300;24399;-26
2022/05/17 02:05:22;;;;;;;2.80;1.70;;;;;;;12.76;57.43;99473.33;103684;1300;23784;-30
2022/05/17 02:07:51;;;;;;;3.40;2.50;;;;;;;12.76;57.43;99473.95;103683;1300;24265;-26
2022/05/17 02:10:25;;;;;;;6.70;6.10;;;;;;;12.76;57.48;99471.42;103788;1300;24230;-25
2022/05/17 02:12:55;;;;;;;12.60;10.90;;;;;;;12.78;57.17;99472.83;103734;1300;24974;-31
2022/05/17 02:15:25;;;;;;;7.50;3.90;;;;;;;12.83;57.12;99467.55;103690;1300;24281;-27
2022/05/17 02:17:54;;;;;;;10.40;7.10;;;;;;;12.84;57.02;99465.81;103767;1300;24333;-28
2022/05/17 02:20:24;;;;;;;5.90;4.50;;;;;;;12.84;56.96;99464.69;103691;1300;23525;-27
2022/05/17 02:22:53;;;;;;;10.30;4.70;;;;;;;12.82;56.86;99464.08;103747;1300;24279;-28
2022/05/17 02:25:22;;;;;;;10.40;6.00;;;;;;;12.81;56.83;99464.62;103749;1300;22499;-28
2022/05/17 02:27:51;;;;;;;7.20;4.30;;;;;;;12.82;56.73;99464.98;103760;1300;22496;-30
2022/05/17 02:30:20;;;;;;;5.80;1.70;;;;;;;12.78;56.88;99469.21;103731;1300;24307;-27
2022/05/17 02:32:49;;;;;;;3.70;1.20;;;;;;;12.77;56.89;99475.73;103583;1300;22764;-29
2022/05/17 02:35:18;;;;;;;3.10;1.40;;;;;;;12.70;57.00;99476.80;103713;1300;22943;-25
2022/05/17 02:37:46;;;;;;;4.80;1.70;;;;;;;12.72;57.04;99474.32;103742;1300;22758;-28
2022/05/17 02:40:15;;;;;;;3.90;1.60;;;;;;;12.65;57.44;99473.30;103702;1300;22508;-24
2022/05/17 02:42:44;;;;;;;2.70;1.40;;;;;;;12.54;57.81;99476.48;103743;1300;24207;-29
2022/05/17 02:45:13;;;;;;;5.30;1.80;;;;;;;12.44;59.83;99477.48;103641;1300;23652;-28
2022/05/17 02:47:42;;;;;;;3.10;1.80;;;;;;;12.34;62.12;99473.34;103740;1300;24236;-25
2022/05/17 02:50:11;;;;;;;3.30;1.80;;;;;;;12.20;63.10;99479.45;103700;1300;22508;-26
2022/05/17 02:52:40;;;;;;;2.50;1.50;;;;;;;12.07;63.76;99480.67;103643;1300;24211;-31
2022/05/17 02:55:09;;;;;;;7.80;1.70;;;;;;;12.00;63.92;99479.06;103779;1300;22498;-27
2022/05/17 02:57:38;;;;;;;2.20;1.30;;;;;;;11.95;64.76;99484.29;103737;1300;23530;-29
2022/05/17 03:00:10;;;;;;;5.30;2.00;;;;;;;11.87;65.46;99488.75;103703;1300;24243;-28
2022/05/17 03:02:39;;;;;;;5.50;1.40;;;;;;;11.81;65.69;99493.98;103795;1300;24276;-29
2022/05/17 03:05:10;;;;;;;2.50;0.90;;;;;;;11.74;65.98;99492.38;103753;1300;22480;-25
2022/05/17 03:07:39;;;;;;;6.10;2.10;;;;;;;11.71;65.48;99494.78;103721;1300;25115;-24
2022/05/17 03:10:09;;;;;;;5.00;1.90;;;;;;;11.75;63.74;99497.24;103590;1300;23847;-25
2022/05/17 03:12:38;;;;;;;3.80;1.90;;;;;;;11.71;63.13;99497.39;103833;1300;24307;-24
2022/05/17 03:15:08;;;;;;;3.40;1.80;;;;;;;11.76;62.78;99490.17;103705;1300;22496;-25
2022/05/17 03:17:37;;;;;;;4.60;2.70;;;;;;;11.71;62.94;99496.17;103766;1300;24234;-28
2022/05/17 03:20:07;;;;;;;6.90;2.50;;;;;;;11.68;63.00;99497.25;103603;1300;24211;-27
2022/05/17 03:22:36;;;;;;;6.00;3.30;;;;;;;11.68;63.08;99495.27;103733;1300;23634;-24
2022/05/17 03:25:05;;;;;;;8.30;2.50;;;;;;;11.66;63.16;99490.16;103719;1300;22824;-27
2022/05/17 03:27:34;;;;;;;10.20;3.20;;;;;;;11.66;63.52;99492.86;103699;1300;24211;-25
2022/05/17 03:30:04;;;;;;;3.90;2.70;;;;;;;11.65;63.51;99495.80;103735;1300;22520;-29
2022/05/17 03:32:33;;;;;;;9.00;3.40;;;;;;;11.62;63.37;99494.50;103752;1300;25293;-28
2022/05/17 03:35:03;;;;;;;3.40;2.60;;;;;;;11.59;63.55;99493.11;103738;1300;23001;-29
2022/05/17 03:37:32;;;;;;;3.30;2.30;;;;;;;11.60;63.50;99497.80;103700;1300;22511;-29
2022/05/17 03:40:01;;;;;;;3.70;2.10;;;;;;;11.62;63.06;99492.34;103734;1300;24234;-29
2022/05/17 03:42:30;;;;;;;9.10;2.90;;;;;;;11.66;63.05;99488.22;103671;1300;22505;-29
2022/05/17 03:44:59;;;;;;;7.80;2.90;;;;;;;11.72;62.90;99482.37;103591;1300;22517;-25
2022/05/17 03:47:28;;;;;;;7.00;2.70;;;;;;;11.75;63.61;99486.02;103546;1301;24236;-25
2022/05/17 03:49:57;;;;;;;4.50;2.50;;;;;;;11.80;63.69;99487.77;103674;1298;22493;-29
2022/05/17 03:52:27;;;;;;;11.60;3.20;;;;;;;11.86;63.96;99492.36;103712;1300;24249;-28
2022/05/17 03:54:57;;;;;;;6.70;3.00;;;;;;;11.95;62.70;99489.59;103732;1300;24192;-28
2022/05/17 03:57:26;;;;;;;6.10;2.10;;;;;;;12.00;62.84;99491.63;103696;1300;24234;-24
2022/05/17 03:59:56;;;;;;;8.50;3.70;;;;;;;12.08;62.50;99489.63;103725;1300;24279;-28
2022/05/17 04:02:25;;;;;;;4.90;2.90;;;;;;;12.11;62.52;99492.31;103735;1300;22775;-30
2022/05/17 04:04:54;;;;;;;8.40;3.60;;;;;;;12.13;62.58;99496.54;103730;1300;23735;-29
2022/05/17 04:07:23;;;;;;;8.00;2.90;;;;;;;12.17;63.33;99498.38;103695;1300;22504;-25
2022/05/17 04:09:53;;;;;;;3.30;2.20;;;;;;;12.18;64.38;99498.41;103604;1300;24214;-25
2022/05/17 04:12:22;;;;;;;5.30;2.70;;;;;;;12.23;64.03;99491.34;103686;1300;24993;-25
2022/05/17 04:14:52;;;;;;;7.30;3.00;;;;;;;12.32;62.68;99484.40;103680;1300;25153;-25
2022/05/17 04:17:22;;;;;;;14.30;2.10;;;;;;;12.31;62.83;99489.45;103432;1300;436696;-26
2022/05/17 04:19:51;;;;;;;16.00;3.20;;;;;;;12.28;63.25;99487.25;103769;1300;24298;-26
2022/05/17 04:22:20;;;;;;;6.40;3.30;;;;;;;12.28;63.26;99491.90;103768;1300;24207;-25
2022/05/17 04:24:53;;;;;;;4.50;2.10;;;;;;;12.30;63.34;99490.20;103728;1300;24211;-27
2022/05/17 04:27:22;;;;;;;7.50;3.60;;;;;;;12.29;63.54;99488.66;103636;1300;25099;-30
2022/05/17 04:29:51;;;;;;;10.40;3.20;;;;;;;12.36;63.43;99489.95;103778;1300;22508;-27
2022/05/17 04:32:20;;;;;;;6.00;2.80;;;;;;;12.40;63.44;99489.48;103900;1300;24224;-26
2022/05/17 04:34:49;;;;;;;7.50;3.10;;;;;;;12.37;63.41;99493.19;103787;1300;24974;-24
2022/05/17 04:37:18;;;;;;;5.60;2.50;;;;;;;12.42;63.38;99492.40;103655;1300;24317;-27
2022/05/17 04:39:47;;;;;;;4.60;2.60;;;;;;;12.46;63.77;99491.04;103755;1300;24221;-31
2022/05/17 04:42:16;;;;;;;4.50;2.70;;;;;;;12.57;63.47;99492.66;103716;1300;25097;-25
2022/05/17 04:44:45;;;;;;;4.60;2.20;;;;;;;12.69;63.28;99493.23;103741;1300;24211;-24
2022/05/17 04:47:14;;;;;;;3.90;2.50;;;;;;;12.81;63.45;99495.71;103738;1298;24980;-28
2022/05/17 04:49:43;;;;;;;13.00;3.10;;;;;;;12.94;63.82;99497.83;103613;1300;24179;-29
2022/05/17 04:52:13;;;;;;;7.90;2.90;;;;;;;13.04;64.71;99499.00;103734;1300;24259;-28
2022/05/17 04:54:42;;;;;;;13.80;3.30;;;;;;;13.13;63.95;99496.95;103685;1300;24429;-28
2022/05/17 04:57:12;;;;;;;9.70;4.50;;;;;;;13.23;64.71;99498.36;103691;1300;22496;-29
2022/05/17 04:59:41;;;;;;;44.60;9.20;;;;;;;13.34;64.26;99501.25;103789;1300;24376;-28
2022/05/17 05:02:10;;;;;;;34.60;11.70;;;;;;;13.28;64.53;99504.90;103690;1300;22508;-25
2022/05/17 05:04:39;;;;;;;15.70;4.20;;;;;;;13.20;65.91;99509.55;103739;1300;24330;-29
2022/05/17 05:07:08;;;;;;;3.70;2.00;;;;;;;13.30;66.28;99512.46;103575;1303;23795;-24
2022/05/17 05:09:37;;;;;;;3.40;1.90;;;;;;;13.49;65.99;99510.04;103629;1300;24211;-28
2022/05/17 05:12:07;;;;;;;4.60;2.00;;;;;;;13.58;65.44;99513.76;103759;1300;24103;-24
2022/05/17 05:14:36;;;;;;;3.70;2.10;;;;;;;13.62;64.98;99510.04;103759;1300;22526;-24
2022/05/17 05:17:04;;;;;;;7.10;2.50;;;;;;;13.85;64.42;99507.98;103714;1300;23612;-28
2022/05/17 05:19:33;;;;;;;5.90;2.50;;;;;;;14.08;63.73;99499.89;103746;1300;22502;-24
2022/05/17 05:22:03;;;;;;;10.40;5.80;;;;;;;14.27;63.13;99492.77;103719;1300;24212;-23
2022/05/17 05:24:32;;;;;;;6.90;3.70;;;;;;;14.51;62.17;99492.54;103743;1299;25015;-25
2022/05/17 05:27:01;;;;;;;7.80;2.70;;;;;;;14.77;61.03;99490.43;103660;1300;22505;-30
2022/05/17 05:29:30;;;;;;;10.70;1.90;;;;;;;15.06;60.62;99499.40;103714;1300;23598;-30
2022/05/17 05:31:59;;;;;;;6.80;1.80;;;;;;;15.29;59.65;99503.95;103732;1300;24234;-30
2022/05/17 05:34:29;;;;;;;4.50;2.10;;;;;;;15.49;58.84;99499.98;103571;1300;23796;-27
2022/05/17 05:36:58;;;;;;;4.00;2.10;;;;;;;15.64;58.89;99505.10;103585;1303;22606;-25
2022/05/17 05:39:27;;;;;;;3.50;2.20;;;;;;;15.80;57.43;99507.62;103745;1300;24366;-29
2022/05/17 05:41:56;;;;;;;3.50;2.20;;;;;;;15.68;57.79;99513.35;103755;1300;24298;-29
2022/05/17 05:44:25;;;;;;;7.30;2.20;;;;;;;15.61;58.48;99509.34;103726;1300;24214;-29
2022/05/17 05:46:53;;;;;;;5.80;2.50;;;;;;;15.53;59.00;99510.18;103725;1300;24272;-28
2022/05/17 05:49:22;;;;;;;2.80;1.50;;;;;;;15.57;58.17;99505.34;103687;1300;24333;-25
2022/05/17 05:51:51;;;;;;;7.20;2.30;;;;;;;15.60;57.51;99503.89;103703;1300;22629;-29
2022/05/17 05:54:20;;;;;;;3.90;1.70;;;;;;;15.81;57.40;99504.99;103695;1300;24017;-24
2022/05/17 05:56:49;;;;;;;6.20;1.70;;;;;;;16.13;56.93;99506.48;103679;1300;24299;-30
2022/05/17 05:59:18;;;;;;;7.00;1.90;;;;;;;16.45;55.71;99508.17;103708;1300;25119;-30
2022/05/17 06:01:47;;;;;;;2.70;1.80;;;;;;;16.81;55.02;99511.00;103638;1300;23623;-27
2022/05/17 06:04:16;;;;;;;4.60;1.50;;;;;;;16.99;54.03;99512.45;103724;1300;23620;-28
2022/05/17 06:06:45;;;;;;;3.10;1.30;;;;;;;17.09;53.44;99511.61;103753;1300;24496;-30
2022/05/17 06:09:14;;;;;;;5.70;3.00;;;;;;;17.04;53.52;99516.71;103774;1300;22995;-25
2022/05/17 06:11:43;;;;;;;3.20;1.50;;;;;;;17.19;53.14;99517.65;103703;1300;22503;-30
2022/05/17 06:14:12;;;;;;;6.60;1.80;;;;;;;17.28;53.07;99517.73;103727;1300;23584;-25
2022/05/17 06:16:41;;;;;;;6.40;1.90;;;;;;;17.33;53.29;99521.05;103733;1300;25031;-25
2022/05/17 06:19:10;;;;;;;6.50;1.80;;;;;;;17.48;53.30;99520.77;103761;1300;24247;-24
2022/05/17 06:21:40;;;;;;;3.10;1.50;;;;;;;17.58;52.50;99519.73;103718;1300;24255;-25
2022/05/17 06:24:09;;;;;;;4.70;1.70;;;;;;;17.68;51.08;99520.38;103543;1301;23945;-28
2022/05/17 06:26:38;;;;;;;2.60;1.40;;;;;;;17.66;50.97;99522.79;103777;1300;23599;-27
2022/05/17 06:29:07;;;;;;;6.00;1.70;;;;;;;17.68;51.49;99523.00;103610;1300;23805;-30
2022/05/17 06:31:36;;;;;;;5.00;2.00;;;;;;;17.89;51.91;99523.33;103765;1300;24301;-26
2022/05/17 06:34:05;;;;;;;5.60;2.60;;;;;;;18.17;51.80;99526.38;103781;1300;22719;-30
2022/05/17 06:36:34;;;;;;;3.00;2.30;;;;;;;18.39;51.56;99529.39;103758;1300;25105;-28
2022/05/17 06:39:08;;;;;;;4.30;1.60;;;;;;;18.61;51.24;99526.42;103747;1300;22507;-29
2022/05/17 06:41:37;;;;;;;4.70;1.70;;;;;;;18.74;49.57;99528.59;103745;1300;24416;-25
2022/05/17 06:44:06;;;;;;;4.80;1.20;;;;;;;18.67;49.81;99534.36;103719;1300;22723;-24
2022/05/17 06:46:35;;;;;;;2.90;1.30;;;;;;;18.78;49.35;99530.58;103713;1300;25233;-30
2022/05/17 06:49:04;;;;;;;2.80;1.30;;;;;;;18.80;49.04;99530.23;103564;1300;24295;-24
2022/05/17 06:51:35;;;;;;;7.80;1.40;;;;;;;18.77;48.21;99517.77;103665;1300;24236;-25
2022/05/17 06:54:04;;;;;;;1.80;0.70;;;;;;;18.64;48.16;99514.88;103717;1300;23642;-29
2022/05/17 06:56:33;;;;;;;10.10;1.50;;;;;;;18.55;48.01;99512.64;103673;1300;23816;-28
2022/05/17 06:59:03;;;;;;;7.70;1.30;;;;;;;18.71;48.00;99513.25;103590;1300;22673;-24
2022/05/17 07:01:32;;;;;;;2.60;1.20;;;;;;;18.90;47.37;99518.95;103487;1300;24469;-29
2022/05/17 07:04:01;;;;;;;2.90;1.20;;;;;;;19.08;46.48;99522.48;103645;1300;24811;-29
2022/05/17 07:06:30;;;;;;;3.90;1.40;;;;;;;19.27;46.70;99519.09;103608;1300;25089;-28
2022/05/17 07:08:59;;;;;;;4.30;1.50;;;;;;;19.56;46.30;99521.73;103716;1300;24379;-25
2022/05/17 07:14:00;;;;;;;5.70;1.50;;;;;;;20.13;45.24;99527.78;103759;1300;24731;-27
2022/05/17 07:16:30;;;;;;;3.20;1.40;;;;;;;20.57;44.49;99532.70;103711;1300;24230;-24
2022/05/17 07:18:59;;;;;;;3.60;1.10;;;;;;;20.79;44.17;99533.66;103655;1300;22601;-27
2022/05/17 07:21:28;;;;;;;4.60;1.00;;;;;;;21.11;43.49;99532.83;103698;1300;22792;-25
2022/05/17 07:23:57;;;;;;;5.20;1.30;;;;;;;21.17;42.88;99535.22;103768;1300;24368;-28
2022/05/17 07:26:26;;;;;;;13.30;1.40;;;;;;;21.63;42.88;99536.44;103751;1300;24332;-25
2022/05/17 07:28:54;;;;;;;4.60;1.00;;;;;;;22.10;41.81;99534.99;103742;1300;25053;-24
2022/05/17 07:31:23;;;;;;;3.40;1.00;;;;;;;22.30;41.32;99531.30;103776;1300;22647;-25
2022/05/17 07:33:53;;;;;;;8.40;1.20;;;;;;;22.32;40.74;99535.23;103723;1300;22623;-26
2022/05/17 07:36:22;;;;;;;4.10;1.20;;;;;;;22.35;40.78;99532.89;103752;1300;24297;-27
2022/05/17 07:38:51;;;;;;;3.50;1.30;;;;;;;22.37;40.25;99531.20;103538;1300;22499;-24
2022/05/17 07:41:20;;;;;;;8.00;1.20;;;;;;;22.30;40.29;99531.90;103798;1300;25057;-28
2022/05/17 07:43:49;;;;;;;5.30;1.30;;;;;;;22.49;39.80;99530.50;103733;1300;24216;-28
2022/05/17 07:46:18;;;;;;;13.30;1.60;;;;;;;22.30;39.68;99532.77;103709;1300;24274;-25
2022/05/17 07:48:47;;;;;;;1.80;0.90;;;;;;;22.38;39.49;99524.58;103710;1300;24217;-24
2022/05/17 07:51:16;;;;;;;3.60;1.00;;;;;;;22.37;39.73;99527.42;103781;1300;24230;-25
2022/05/17 07:53:46;;;;;;;5.40;0.80;;;;;;;22.48;39.64;99526.02;103683;1300;24980;-24
2022/05/17 07:56:15;;;;;;;2.70;0.70;;;;;;;22.51;38.92;99530.02;103667;1300;22743;-25
2022/05/17 07:58:44;;;;;;;9.70;1.10;;;;;;;22.54;39.12;99531.06;103742;1300;22597;-28
2022/05/17 08:01:13;;;;;;;2.30;1.10;;;;;;;22.54;39.28;99531.22;103713;1300;23633;-25
2022/05/17 08:03:42;;;;;;;3.50;1.00;;;;;;;22.69;38.96;99525.59;103787;1300;25056;-28
2022/05/17 08:06:11;;;;;;;5.40;1.10;;;;;;;22.54;38.41;99525.31;103766;1300;23863;-27
2022/05/17 08:08:40;;;;;;;2.20;1.20;;;;;;;22.57;38.71;99528.33;103758;1300;22623;-25
2022/05/17 08:11:09;;;;;;;3.30;1.20;;;;;;;22.59;38.93;99530.63;103540;1303;24284;-28
2022/05/17 08:13:38;;;;;;;6.30;0.50;;;;;;;22.56;39.03;99527.34;103663;1300;22967;-28
2022/05/17 08:16:08;;;;;;;1.60;0.90;;;;;;;22.58;38.38;99528.45;103731;1299;23656;-27
2022/05/17 08:18:37;;;;;;;1.00;0.60;;;;;;;22.43;38.72;99523.81;103618;1300;22502;-28
2022/05/17 08:21:07;;;;;;;11.20;1.00;;;;;;;22.44;38.85;99526.72;103781;1300;24234;-26
2022/05/17 08:23:36;;;;;;;3.10;1.60;;;;;;;22.57;39.01;99527.29;103796;1300;24305;-28
2022/05/17 08:28:38;;;;;;;2.40;1.40;;;;;;;21.97;41.16;99528.98;103727;1300;22721;-25
2022/05/17 08:31:09;;;;;;;4.10;1.60;;;;;;;22.33;39.68;99531.41;103730;1300;22506;-28
2022/05/17 08:33:38;;;;;;;2.30;0.90;;;;;;;21.99;40.21;99535.39;103746;1300;24372;-28
2022/05/17 08:36:09;;;;;;;5.40;1.80;;;;;;;21.64;40.79;99536.54;103789;1300;24208;-25
2022/05/17 08:38:40;;;;;;;5.20;1.00;;;;;;;21.66;40.53;99534.38;103794;1300;25343;-25
2022/05/17 08:41:17;;;;;;;4.10;1.20;;;;;;;21.35;40.54;99535.18;103751;1300;25216;-28
2022/05/17 08:43:49;;;;;;;1.50;1.10;;;;;;;20.99;41.37;99536.11;103655;1300;22500;-25
2022/05/17 08:46:23;;;;;;;4.50;1.50;;;;;;;21.03;41.16;99535.27;103773;1300;24938;-30
2022/05/17 08:48:57;;;;;;;2.60;0.60;;;;;;;21.41;39.83;99534.94;103818;1299;25265;-28
2022/05/17 08:51:33;;;;;;;4.60;1.00;;;;;;;20.33;41.62;99541.58;103722;1300;23734;-24
2022/05/17 08:54:04;;;;;;;3.20;1.00;;;;;;;20.40;41.89;99545.08;103739;1300;22516;-25
2022/05/17 08:56:36;;;;;;;4.20;1.00;;;;;;;20.51;41.53;99548.04;103724;1300;24339;-25
2022/05/17 08:59:05;;;;;;;2.10;1.00;;;;;;;20.11;43.49;99548.90;103724;1300;22731;-25
2022/05/17 09:01:39;;;;;;;11.60;1.20;;;;;;;20.12;43.88;99549.67;103715;1300;24233;-28
2022/05/17 09:04:14;;;;;;;2.60;0.90;;;;;;;20.11;44.73;99552.34;103650;1300;24294;-24
2022/05/17 09:06:44;;;;;;;7.80;2.00;;;;;;;20.18;44.44;99552.05;103721;1300;24236;-27
2022/05/17 09:09:17;;;;;;;11.40;1.40;;;;;;;20.19;44.61;99553.15;103723;1300;23379;-25
2022/05/17 09:11:54;;;;;;;4.80;1.10;;;;;;;20.10;44.93;99554.84;103750;1300;22516;-24
2022/05/17 09:14:25;;;;;;;3.50;1.30;;;;;;;20.68;42.58;99556.11;103751;1300;22667;-25
2022/05/17 09:16:58;;;;;;;5.00;1.90;;;;;;;20.30;42.72;99565.10;103768;1300;22502;-28
2022/05/17 09:19:27;;;;;;;;;;;;;;;19.73;44.48;99567.41;103818;1300;24345;-28
2022/05/17 09:21:58;;;;;;;2.80;1.30;;;;;;;19.72;44.38;99567.10;103678;1300;23526;-25
2022/05/17 09:24:31;;;;;;;6.10;1.30;;;;;;;20.05;43.09;99569.30;103702;1300;23612;-24
2022/05/17 09:27:03;;;;;;;3.90;0.90;;;;;;;19.93;42.66;99570.95;103736;1299;23602;-25
2022/05/17 09:29:36;;;;;;;4.20;1.40;;;;;;;19.59;43.08;99575.02;103655;1303;23955;-30
2022/05/17 09:32:08;;;;;;;4.40;1.30;;;;;;;19.45;43.86;99573.98;103761;1300;22772;-24
2022/05/17 09:34:38;;;;;;;2.50;0.80;;;;;;;19.17;44.58;99576.33;103790;1300;25008;-28
2022/05/17 09:37:09;;;;;;;4.30;1.10;;;;;;;19.29;44.94;99580.06;103762;1300;24246;-28
2022/05/17 09:39:38;;;;;;;3.20;1.00;;;;;;;19.10;45.91;99581.88;103769;1300;22638;-24
2022/05/17 09:42:08;;;;;;;2.00;1.00;;;;;;;19.02;46.26;99585.42;103750;1300;25121;-28
2022/05/17 09:44:40;;;;;;;2.60;1.00;;;;;;;19.47;44.85;99585.33;103637;1300;23928;-28
2022/05/17 09:47:23;;;;;;;2.40;1.00;;;;;;;19.40;45.05;99588.39;103688;1300;24288;-24
2022/05/17 09:55:05;;;;;;;2.10;0.80;;;;;;;19.06;45.98;99587.82;103721;1300;24234;-24
2022/05/17 09:57:34;;;;;;;2.70;0.90;;;;;;;19.27;45.79;99585.54;103696;1300;22507;-28
2022/05/17 10:00:08;;;;;;;16.20;1.40;;;;;;;19.35;45.40;99589.25;103510;1300;24295;-28
2022/05/17 10:02:42;;;;;;;9.60;1.40;;;;;;;19.37;45.54;99588.03;103689;1300;24014;-25
2022/05/17 10:05:11;;;;;;;4.40;1.00;;;;;;;19.56;45.45;99589.89;103718;1300;24211;-24
2022/05/17 10:07:40;;;;;;;3.10;1.20;;;;;;;19.74;45.07;99587.38;103822;1300;22498;-25
2022/05/17 10:10:23;;;;;;;5.00;1.00;;;;;;;19.40;45.33;99593.58;103802;1300;22499;-28
2022/05/17 10:12:52;;;;;;;2.80;0.90;;;;;;;19.40;45.09;99593.19;103733;1300;24294;-25
2022/05/17 10:15:21;;;;;;;1.00;0.50;;;;;;;19.70;43.01;99592.83;103698;1300;22508;-24
2022/05/17 10:17:55;;;;;;;5.90;0.60;;;;;;;19.88;41.83;99595.73;103758;1300;22508;-28
2022/05/17 10:20:27;;;;;;;2.10;0.70;;;;;;;19.87;42.25;99596.17;103763;1300;24452;-26
2022/05/17 10:22:58;;;;;;;4.80;0.80;;;;;;;19.50;43.22;99599.00;103752;1300;22510;-27
2022/05/17 10:25:33;;;;;;;5.00;0.90;;;;;;;19.91;42.56;99597.09;103600;1300;23643;-25
2022/05/17 10:28:07;;;;;;;4.00;1.20;;;;;;;19.63;43.74;99602.63;103740;1300;24211;-31
2022/05/17 10:30:40;;;;;;;;;;;;;;;19.74;43.92;99598.87;103733;1299;23733;-25
2022/05/17 10:33:14;;;;;;;1.80;1.10;;;;;;;20.13;43.90;99601.28;103596;1303;22507;-28
2022/05/17 10:35:45;;;;;;;1.30;0.70;;;;;;;19.59;46.55;99606.33;103589;1300;22689;-30
2022/05/17 10:38:18;;;;;;;2.90;1.80;;;;;;;19.96;44.96;99602.27;103741;1300;22809;-24
2022/05/17 10:40:49;;;;;;;3.20;1.00;;;;;;;19.90;42.71;99606.89;103756;1300;24342;-27
2022/05/17 10:43:25;;;;;;;2.20;0.80;;;;;;;20.12;41.17;99606.77;103612;1300;25379;-26
2022/05/17 10:46:00;;;;;;;4.10;0.90;;;;;;;19.66;42.60;99608.95;103716;1299;22727;-25
2022/05/17 10:48:38;;;;;;;3.00;0.70;;;;;;;19.59;43.85;99606.87;103768;1300;22841;-29
2022/05/17 10:51:13;;;;;;;1.90;0.80;;;;;;;19.47;45.06;99610.95;103784;1300;24246;-27
2022/05/17 10:53:49;;;;;;;3.60;0.80;;;;;;;19.38;46.07;99606.02;103717;1300;23529;-25
2022/05/17 10:56:25;;;;;;;1.80;0.80;;;;;;;19.27;47.11;99608.90;103715;1300;22995;-28
2022/05/17 10:58:59;;;;;;;2.10;1.10;;;;;;;19.02;47.03;99610.66;103712;1300;22836;-28
2022/05/17 11:01:36;;;;;;;9.10;0.70;;;;;;;18.77;47.24;99620.02;103691;1300;24275;-28
2022/05/17 11:04:05;;;;;;;1.80;0.70;;;;;;;18.84;46.81;99615.58;103733;1300;24352;-24
2022/05/17 11:06:36;;;;;;;3.30;0.60;;;;;;;18.64;46.21;99610.64;103743;1300;24294;-28
2022/05/17 11:09:10;;;;;;;1.10;0.80;;;;;;;18.58;45.91;99610.04;103602;1300;24966;-23
2022/05/17 11:11:46;;;;;;;1.70;0.60;;;;;;;18.39;46.25;99613.25;103690;1300;24192;-28
2022/05/17 11:14:21;;;;;;;4.40;1.00;;;;;;;18.45;46.40;99616.05;103703;1300;23744;-24
2022/05/17 11:16:57;;;;;;;1.20;0.80;;;;;;;18.42;46.32;99614.40;103737;1300;22693;-24
2022/05/17 11:19:33;;;;;;;10.70;0.90;;;;;;;18.27;46.94;99613.46;103758;1299;23863;-24
2022/05/17 11:22:06;;;;;;;1.50;0.50;;;;;;;18.18;47.48;99618.23;103724;1300;23759;-28
2022/05/17 11:24:39;;;;;;;0.90;0.30;;;;;;;18.06;48.02;99621.47;103709;1300;25006;-28
2022/05/17 11:27:15;;;;;;;0.60;0.40;;;;;;;17.97;47.83;99624.96;103727;1299;23052;-28
2022/05/17 11:29:47;;;;;;;8.70;0.60;;;;;;;17.86;47.91;99622.04;103742;1300;24215;-28
2022/05/17 11:32:23;;;;;;;0.60;0.40;;;;;;;17.84;48.05;99624.95;103789;1300;24307;-28
2022/05/17 11:34:53;;;;;;;3.90;0.70;;;;;;;17.87;48.02;99628.55;103735;1300;23606;-30
2022/05/17 11:37:29;;;;;;;1.60;0.40;;;;;;;17.79;47.72;99632.27;103737;1300;24986;-26
2022/05/17 11:40:00;;;;;;;1.00;0.60;;;;;;;17.70;47.54;99633.92;103627;1300;22771;-26
2022/05/17 11:43:40;;;;;;;4.10;0.60;;;;;;;17.62;47.29;99636.45;103763;1300;25237;-24
2022/05/17 11:45:33;;;;;;;4.70;0.60;;;;;;;17.56;47.12;99638.15;103739;1300;23798;-25
2022/05/17 11:48:02;;;;;;;1.50;0.50;;;;;;;17.49;47.05;99640.02;103751;1300;24357;-28
2022/05/17 11:50:32;;;;;;;4.50;0.70;;;;;;;17.54;46.77;99643.44;103731;1300;23606;-28